CheckWX is a tool to help pilots better visualize weather data.  It is not intended as a substitute for an official pre-flight weather briefing.

13:23:04 UTC

KLAS TAF
Mc Carran International Airport
Las Vegas, Nevada, USA
KLAS 201125Z 2012/2118 VRB05KT P6SM SKC FM201700 10007KT P6SM SKC FM202200 20008G16KT P6SM SKC FM210300 20007KT P6SM SKC FM210600 26006KT P6SM SKC FM211500 VRB05KT P6SM SKC

Aug-20@
12:00 UTC

Aug-20 @ 12:00 UTC

Aug-20@
17:00 UTC

Aug-20 @ 17:00 UTC

KLAS 201125Z 2012/2118 VRB05KT P6SM SKC
Wind
  • Variable at 5 KTS
Cloud Levels
  • Clear skies

Aug-20@
17:00 UTC

Aug-20 @ 17:00 UTC

Aug-20@
22:00 UTC

Aug-20 @ 22:00 UTC

FM201700 10007KT P6SM SKC

From

From Standard forecast or significant change

Wind
  • 100° at 7 KTS
Cloud Levels
  • Clear skies

Aug-20@
22:00 UTC

Aug-20 @ 22:00 UTC

Aug-21@
03:00 UTC

Aug-21 @ 03:00 UTC

FM202200 20008G16KT P6SM SKC

From

From Standard forecast or significant change

Wind
  • 200° at 8 KTS
  • {Gusting to 16 KTS
Cloud Levels
  • Clear skies

Aug-21@
03:00 UTC

Aug-21 @ 03:00 UTC

Aug-21@
06:00 UTC

Aug-21 @ 06:00 UTC

FM210300 20007KT P6SM SKC

From

From Standard forecast or significant change

Wind
  • 200° at 7 KTS
Cloud Levels
  • Clear skies

Aug-21@
06:00 UTC

Aug-21 @ 06:00 UTC

Aug-21@
15:00 UTC

Aug-21 @ 15:00 UTC

FM210600 26006KT P6SM SKC

From

From Standard forecast or significant change

Wind
  • 260° at 6 KTS
Cloud Levels
  • Clear skies

Aug-21@
15:00 UTC

Aug-21 @ 15:00 UTC

Aug-21@
18:00 UTC

Aug-21 @ 18:00 UTC

FM211500 VRB05KT P6SM SKC

From

From Standard forecast or significant change

Wind
  • Variable at 5 KTS
Cloud Levels
  • Clear skies